Time;durP1;ratioP1;P1;durP2;ratioP2;P2;SDS_P1;SDS_P2;PMS_P1;PMS_P2;Temp;Humidity;BMP_temperature;BMP_pressure;BME280_temperature;BME280_humidity;BME280_pressure;Samples;Min_cycle;Max_cycle;Signal;HPM_P1;HPM_P2
2023/06/12 00:00:12;;;;;;;9.80;5.70;;;;;;;13.70;63.11;101268.19;104727;1292;98085;-80
2023/06/12 00:03:19;;;;;;;9.40;4.90;;;;;;;13.66;63.13;101269.06;104665;1274;98353;-80
2023/06/12 00:06:05;;;;;;;8.40;5.90;;;;;;;13.59;63.30;101266.11;104639;1270;97954;-78
2023/06/12 00:08:51;;;;;;;8.50;5.30;;;;;;;13.56;63.37;101267.44;104775;1282;101310;-80
2023/06/12 00:11:40;;;;;;;9.50;5.60;;;;;;;13.51;63.57;101266.14;104671;1270;99143;-80
2023/06/12 00:14:25;;;;;;;9.20;5.30;;;;;;;13.44;63.68;101265.16;104813;1273;98529;-78
2023/06/12 00:17:11;;;;;;;5.80;5.10;;;;;;;13.35;63.38;101266.00;104798;1273;98009;-78
2023/06/12 00:19:57;;;;;;;13.80;5.50;;;;;;;13.27;63.35;101264.29;104721;1271;98423;-81
2023/06/12 00:22:43;;;;;;;5.90;5.30;;;;;;;13.18;63.53;101265.91;104705;1270;101378;-79
2023/06/12 00:25:29;;;;;;;8.70;5.60;;;;;;;13.09;63.97;101265.73;104598;1270;99581;-79
2023/06/12 00:28:14;;;;;;;8.40;5.60;;;;;;;13.02;63.91;101262.64;104742;1274;98395;-79
2023/06/12 00:31:00;;;;;;;8.80;5.50;;;;;;;12.97;64.11;101263.03;104682;1273;98158;-79
2023/06/12 00:33:46;;;;;;;8.70;6.30;;;;;;;12.97;64.20;101262.73;104796;1273;98477;-80
2023/06/12 00:36:32;;;;;;;10.70;7.10;;;;;;;12.97;64.22;101266.09;104773;1269;101459;-78
2023/06/12 00:39:18;;;;;;;9.50;7.10;;;;;;;12.96;64.27;101267.86;104730;1273;99135;-78
2023/06/12 00:42:04;;;;;;;10.30;7.40;;;;;;;12.95;64.26;101267.80;104703;1272;98006;-77
2023/06/12 00:44:50;;;;;;;19.10;9.70;;;;;;;12.95;64.03;101267.30;104711;1270;98020;-78
2023/06/12 00:47:36;;;;;;;15.10;9.40;;;;;;;12.93;64.24;101265.54;104604;1273;98423;-79
2023/06/12 00:50:27;;;;;;;15.60;9.70;;;;;;;12.91;64.07;101267.58;104778;1273;103099;-78
2023/06/12 00:53:13;;;;;;;;;;;;;;;12.89;64.02;101267.30;105185;1271;99104;-81
2023/06/12 00:55:59;;;;;;;11.40;7.40;;;;;;;12.82;64.04;101266.04;104713;1271;98924;-81
2023/06/12 00:58:45;;;;;;;7.80;6.30;;;;;;;12.76;64.43;101261.86;104592;1277;98010;-81
2023/06/12 01:01:32;;;;;;;10.20;6.20;;;;;;;12.76;64.98;101264.46;104780;1273;98423;-80
2023/06/12 01:04:18;;;;;;;8.40;6.00;;;;;;;12.71;65.10;101265.60;104708;1270;101388;-79
2023/06/12 01:07:14;;;;;;;6.40;5.50;;;;;;;12.65;65.05;101265.42;104769;1270;99261;-79
2023/06/12 01:10:07;;;;;;;10.20;6.40;;;;;;;12.61;65.27;101267.41;104598;1270;99422;-78
2023/06/12 01:12:54;;;;;;;11.70;6.50;;;;;;;12.54;65.30;101267.60;104734;1273;97994;-79
2023/06/12 01:15:40;;;;;;;8.80;6.60;;;;;;;12.47;65.43;101263.71;104654;1280;97951;-80
2023/06/12 01:18:25;;;;;;;8.40;6.10;;;;;;;12.39;65.43;101258.17;104632;1273;102620;-77
2023/06/12 01:21:21;;;;;;;8.40;6.20;;;;;;;12.28;65.20;101257.27;104703;1274;99059;-80
2023/06/12 01:24:21;;;;;;;9.60;5.50;;;;;;;12.18;65.30;101260.02;104702;1273;99151;-80
2023/06/12 01:27:07;;;;;;;7.00;5.80;;;;;;;12.08;65.50;101263.99;104650;1273;97917;-80
2023/06/12 01:30:08;;;;;;;6.90;5.90;;;;;;;12.04;65.86;101262.66;104665;1270;97961;-79
2023/06/12 01:33:02;;;;;;;7.30;5.80;;;;;;;12.03;65.70;101263.54;105038;1274;103047;-78
2023/06/12 01:35:51;;;;;;;7.40;5.70;;;;;;;12.03;65.82;101265.52;104591;1274;99154;-80
2023/06/12 01:38:39;;;;;;;7.50;5.30;;;;;;;12.03;65.92;101259.61;104817;1275;97889;-80
2023/06/12 01:41:28;;;;;;;6.20;5.50;;;;;;;12.00;65.88;101258.59;104787;1273;97991;-79
2023/06/12 01:44:16;;;;;;;7.70;6.10;;;;;;;11.92;66.02;101262.70;104757;1273;97979;-80
2023/06/12 01:47:03;;;;;;;8.10;5.50;;;;;;;11.88;66.03;101261.73;104755;1270;103119;-78
2023/06/12 01:49:49;;;;;;;7.70;5.90;;;;;;;11.86;66.07;101263.05;104756;1273;99787;-77
2023/06/12 01:52:35;;;;;;;7.70;5.40;;;;;;;11.84;65.88;101265.11;104531;1270;97940;-79
2023/06/12 01:55:21;;;;;;;8.60;5.70;;;;;;;11.81;66.06;101261.39;104493;1273;97997;-80
2023/06/12 01:58:08;;;;;;;11.20;5.90;;;;;;;11.78;66.10;101262.91;104713;1273;99707;-78
2023/06/12 02:01:20;;;;;;;6.30;5.70;;;;;;;11.73;66.02;101266.31;104680;1270;102657;-79
2023/06/12 02:04:06;;;;;;;6.50;5.60;;;;;;;11.66;66.08;101268.07;104604;1273;99096;-80
2023/06/12 02:06:51;;;;;;;6.00;5.30;;;;;;;11.61;66.04;101272.59;104534;1274;98036;-79
2023/06/12 02:09:36;;;;;;;6.20;5.60;;;;;;;11.55;66.10;101268.97;104664;1273;97982;-79
2023/06/12 02:12:22;;;;;;;7.60;6.50;;;;;;;11.50;66.33;101270.69;104671;1270;99244;-80
2023/06/12 02:15:09;;;;;;;8.60;6.20;;;;;;;11.43;66.39;101271.82;104648;1270;102620;-80
2023/06/12 02:17:55;;;;;;;9.30;5.60;;;;;;;11.36;66.34;101273.73;104790;1271;99107;-80
2023/06/12 02:20:42;;;;;;;6.50;5.40;;;;;;;11.30;66.66;101274.94;104443;1271;98042;-78
2023/06/12 02:23:28;;;;;;;7.00;6.10;;;;;;;11.26;66.73;101279.20;104598;1273;97989;-80
2023/06/12 02:26:16;;;;;;;8.00;5.40;;;;;;;11.21;66.72;101277.60;104658;1270;98414;-79
2023/06/12 02:29:09;;;;;;;6.50;5.10;;;;;;;11.20;66.90;101275.02;104588;1273;101357;-79
2023/06/12 02:31:58;;;;;;;9.10;5.30;;;;;;;11.23;67.04;101277.20;104588;1270;99131;-80
2023/06/12 02:34:44;;;;;;;7.00;5.10;;;;;;;11.23;66.77;101280.13;104567;1270;97931;-78
2023/06/12 02:37:31;;;;;;;6.20;5.00;;;;;;;11.18;66.95;101278.17;104533;1270;97887;-78
2023/06/12 02:40:17;;;;;;;8.30;4.50;;;;;;;11.14;67.09;101278.63;104610;1270;100032;-80
2023/06/12 02:43:03;;;;;;;8.30;5.00;;;;;;;11.12;67.15;101279.70;104566;1270;101377;-79
2023/06/12 02:45:49;;;;;;;7.40;5.10;;;;;;;11.10;67.04;101278.48;104873;1270;99153;-80
2023/06/12 02:48:34;;;;;;;7.70;4.40;;;;;;;11.11;67.08;101278.42;104844;1273;99185;-78
2023/06/12 02:51:20;;;;;;;5.60;4.50;;;;;;;11.10;67.22;101278.17;104830;1272;98521;-81
2023/06/12 02:54:05;;;;;;;7.00;4.50;;;;;;;11.10;67.23;101280.09;105475;1270;99603;-80
2023/06/12 02:56:52;;;;;;;7.10;4.80;;;;;;;11.13;67.11;101281.02;104750;1272;102628;-79
2023/06/12 02:59:37;;;;;;;5.80;4.20;;;;;;;11.15;67.29;101284.89;104795;1273;99209;-79
2023/06/12 03:02:28;;;;;;;8.10;4.70;;;;;;;11.20;67.09;101288.77;104655;1276;99110;-78
2023/06/12 03:05:16;;;;;;;9.60;4.90;;;;;;;11.25;67.22;101292.89;104740;1269;97987;-78
2023/06/12 03:08:02;;;;;;;5.90;4.20;;;;;;;11.29;67.12;101291.88;104868;1270;98509;-79
2023/06/12 03:10:48;;;;;;;5.40;4.30;;;;;;;11.34;67.06;101293.66;104846;1270;101420;-81
2023/06/12 03:13:33;;;;;;;6.20;3.70;;;;;;;11.39;67.22;101297.48;104853;1268;100146;-80
2023/06/12 03:16:20;;;;;;;6.80;4.20;;;;;;;11.43;67.10;101297.95;104786;1271;98353;-79
2023/06/12 03:19:07;;;;;;;7.80;4.50;;;;;;;11.45;67.24;101299.34;104784;1270;97968;-81
2023/06/12 03:21:52;;;;;;;6.60;4.50;;;;;;;11.46;67.25;101301.89;104802;1268;98004;-80
2023/06/12 03:24:38;;;;;;;7.30;4.40;;;;;;;11.50;67.13;101302.47;104679;1273;101419;-80
2023/06/12 03:27:23;;;;;;;6.90;4.90;;;;;;;11.54;67.06;101307.73;104627;1270;99233;-80
2023/06/12 03:30:09;;;;;;;8.80;4.40;;;;;;;11.57;66.97;101313.33;104612;1276;98871;-79
2023/06/12 03:32:56;;;;;;;5.90;4.00;;;;;;;11.58;67.16;101312.05;104740;1272;97917;-79
2023/06/12 03:35:42;;;;;;;7.00;4.50;;;;;;;11.65;67.07;101314.58;104458;1276;99308;-79
2023/06/12 03:38:28;;;;;;;6.00;4.90;;;;;;;11.70;67.01;101315.73;104652;1270;102712;-81
2023/06/12 03:41:13;;;;;;;7.80;3.90;;;;;;;11.72;67.41;101314.81;104718;1273;99101;-79
2023/06/12 03:44:00;;;;;;;6.10;3.80;;;;;;;11.76;67.25;101308.67;104581;1274;98715;-80
2023/06/12 03:46:45;;;;;;;6.90;4.30;;;;;;;11.81;67.38;101308.39;104663;1270;97961;-78
2023/06/12 03:49:31;;;;;;;7.60;4.20;;;;;;;11.88;67.31;101307.88;104676;1273;98094;-83
2023/06/12 03:52:16;;;;;;;6.30;4.30;;;;;;;11.94;67.20;101307.44;104716;1269;103077;-80
2023/06/12 03:55:03;;;;;;;6.00;3.90;;;;;;;11.95;67.19;101311.77;104595;1273;99208;-76
2023/06/12 03:57:48;;;;;;;8.70;4.30;;;;;;;11.95;67.10;101314.77;104655;1273;99028;-78
2023/06/12 04:00:33;;;;;;;5.60;4.00;;;;;;;11.98;67.28;101313.21;104612;1270;98005;-80
2023/06/12 04:03:24;;;;;;;6.90;4.20;;;;;;;12.02;67.40;101314.35;104413;1276;98518;-77
2023/06/12 04:06:10;;;;;;;4.60;4.10;;;;;;;12.07;67.39;101310.13;104797;1270;103300;-78
2023/06/12 04:08:59;;;;;;;8.00;3.50;;;;;;;12.15;67.38;101315.64;104734;1272;99077;-80
2023/06/12 04:11:46;;;;;;;4.70;4.20;;;;;;;12.22;67.25;101309.93;104730;1273;99416;-81
2023/06/12 04:14:32;;;;;;;9.80;4.30;;;;;;;12.32;67.18;101309.02;104608;1271;97975;-78
2023/06/12 04:17:17;;;;;;;6.70;3.90;;;;;;;12.39;66.99;101310.27;104782;1270;98021;-79
2023/06/12 04:20:06;;;;;;;4.30;3.60;;;;;;;12.47;66.53;101312.35;104620;1273;102755;-78
2023/06/12 04:22:52;;;;;;;7.60;3.20;;;;;;;12.56;66.48;101314.75;104772;1270;99856;-79
2023/06/12 04:25:38;;;;;;;7.10;3.60;;;;;;;12.65;66.50;101313.55;104817;1269;98229;-79
2023/06/12 04:28:24;;;;;;;5.80;3.90;;;;;;;12.75;66.17;101314.86;104572;1276;98025;-79
2023/06/12 04:31:10;;;;;;;7.00;3.60;;;;;;;12.84;65.74;101320.76;104831;1270;97996;-81
2023/06/12 04:33:56;;;;;;;7.40;3.80;;;;;;;12.92;65.63;101324.89;104804;1273;102208;-79
2023/06/12 04:36:43;;;;;;;8.10;3.60;;;;;;;12.99;65.42;101325.95;104884;1273;100132;-80
2023/06/12 04:39:29;;;;;;;6.70;3.30;;;;;;;13.06;65.44;101322.93;104848;1270;99096;-79
2023/06/12 04:42:16;;;;;;;4.30;3.30;;;;;;;13.17;65.32;101322.73;104640;1270;98525;-80
2023/06/12 04:45:04;;;;;;;5.80;3.20;;;;;;;13.28;64.86;101322.59;104834;1271;98427;-79
2023/06/12 04:47:50;;;;;;;4.20;3.30;;;;;;;13.38;64.75;101326.04;104835;1270;101406;-80
2023/06/12 04:50:36;;;;;;;6.40;3.20;;;;;;;13.46;64.48;101329.66;104856;1270;99171;-81
2023/06/12 04:53:27;;;;;;;4.90;3.00;;;;;;;13.55;64.07;101334.02;104773;1271;99276;-80
2023/06/12 04:56:20;;;;;;;;;;;;;;;13.63;63.95;101331.85;104820;1271;97885;-79
2023/06/12 04:59:05;;;;;;;5.00;3.10;;;;;;;13.74;63.97;101331.44;104758;1270;98357;-80
2023/06/12 05:01:51;;;;;;;4.60;2.90;;;;;;;13.86;63.60;101336.17;104788;1273;101365;-80
2023/06/12 05:04:38;;;;;;;6.10;3.30;;;;;;;13.97;63.60;101334.39;104878;1270;100377;-80
2023/06/12 05:07:24;;;;;;;8.40;3.10;;;;;;;14.10;63.30;101330.84;104850;1268;99474;-78
2023/06/12 05:10:16;;;;;;;4.60;3.30;;;;;;;14.24;63.04;101328.83;104761;1270;97966;-81
2023/06/12 05:13:03;;;;;;;6.90;3.20;;;;;;;14.37;63.05;101326.66;105461;1270;98005;-81
2023/06/12 05:15:49;;;;;;;8.70;2.90;;;;;;;14.50;62.88;101322.66;105349;1270;101364;-82
2023/06/12 05:18:35;;;;;;;4.60;3.00;;;;;;;14.62;62.49;101321.40;105274;1270;100941;-81
2023/06/12 05:21:21;;;;;;;4.20;3.00;;;;;;;14.76;62.50;101317.19;105330;1271;98667;-81
2023/06/12 05:24:07;;;;;;;4.70;3.10;;;;;;;14.88;62.50;101314.37;105400;1271;98017;-81
2023/06/12 05:26:53;;;;;;;11.00;3.30;;;;;;;14.99;61.72;101312.79;105335;1273;99658;-80
2023/06/12 05:29:39;;;;;;;3.80;2.80;;;;;;;15.10;61.32;101312.73;105326;1273;101456;-79
2023/06/12 05:32:25;;;;;;;5.40;3.10;;;;;;;15.21;60.95;101308.38;105355;1269;99273;-82
2023/06/12 05:35:10;;;;;;;3.30;2.60;;;;;;;15.32;60.68;101305.48;105468;1274;97809;-80
2023/06/12 05:37:56;;;;;;;6.20;3.20;;;;;;;15.43;60.52;101303.29;105307;1269;97886;-80
2023/06/12 05:40:41;;;;;;;5.60;3.10;;;;;;;15.54;60.22;101303.99;105487;1271;98432;-81
2023/06/12 05:43:27;;;;;;;5.40;3.00;;;;;;;15.64;60.19;101305.58;105387;1270;101372;-80
2023/06/12 05:46:15;;;;;;;7.10;3.00;;;;;;;15.74;59.60;101303.45;104999;1271;99942;-81
2023/06/12 05:49:00;;;;;;;7.70;3.00;;;;;;;15.83;59.58;101304.14;104941;1270;97936;-79
2023/06/12 05:51:46;;;;;;;6.50;2.90;;;;;;;15.92;59.42;101304.54;105537;1271;99110;-81
2023/06/12 05:54:32;;;;;;;5.80;3.10;;;;;;;16.01;58.98;101304.31;105162;1270;98039;-79
2023/06/12 05:57:18;;;;;;;6.90;3.60;;;;;;;16.10;58.74;101302.59;104616;1270;101374;-78
2023/06/12 06:00:05;;;;;;;4.80;3.00;;;;;;;16.20;58.34;101304.09;104713;1270;100127;-79
2023/06/12 06:03:04;;;;;;;6.20;3.10;;;;;;;16.27;57.82;101307.84;105433;1273;98406;-81
2023/06/12 06:05:51;;;;;;;5.30;3.10;;;;;;;16.38;58.46;101312.18;105331;1271;98045;-80
2023/06/12 06:08:38;;;;;;;7.10;2.80;;;;;;;16.50;58.19;101312.17;104832;1269;98463;-82
2023/06/12 06:11:23;;;;;;;4.30;3.10;;;;;;;16.62;57.99;101311.08;104827;1272;102739;-80
2023/06/12 06:14:09;;;;;;;9.50;3.20;;;;;;;16.73;57.44;101311.23;105175;1274;99840;-80
2023/06/12 06:16:56;;;;;;;6.40;3.00;;;;;;;16.85;57.45;101311.98;105403;1272;97984;-80
2023/06/12 06:19:44;;;;;;;7.60;2.90;;;;;;;16.99;57.31;101312.50;105470;1270;97923;-82
2023/06/12 06:22:31;;;;;;;4.30;2.90;;;;;;;17.11;56.49;101314.14;104853;1274;98423;-81
2023/06/12 06:25:17;;;;;;;5.10;2.70;;;;;;;17.23;56.30;101313.31;105480;1270;101401;-78
2023/06/12 06:28:03;;;;;;;5.50;2.60;;;;;;;17.35;56.06;101312.78;104881;1272;99162;-79
2023/06/12 06:30:49;;;;;;;5.20;2.80;;;;;;;17.46;56.02;101311.91;104833;1272;98636;-81
2023/06/12 06:33:35;;;;;;;4.30;3.00;;;;;;;17.57;55.94;101312.68;104761;1270;97982;-79
2023/06/12 06:36:23;;;;;;;5.50;2.30;;;;;;;17.67;55.21;101310.55;104707;1276;98410;-79
2023/06/12 06:39:09;;;;;;;7.50;2.60;;;;;;;17.76;55.07;101310.30;104925;1270;101947;-81
2023/06/12 06:41:55;;;;;;;5.10;2.60;;;;;;;17.87;54.77;101308.25;105456;1273;99137;-82
2023/06/12 06:44:43;;;;;;;5.10;2.40;;;;;;;17.97;54.58;101308.02;105684;1270;97938;-80
2023/06/12 06:47:29;;;;;;;5.00;2.20;;;;;;;18.10;54.60;101308.81;105736;1273;97996;-81
2023/06/12 06:50:16;;;;;;;6.30;2.60;;;;;;;18.22;54.34;101300.21;105352;1273;97908;-80
2023/06/12 06:53:02;;;;;;;6.00;2.30;;;;;;;18.36;54.28;101303.23;105330;1276;102643;-81
2023/06/12 06:55:48;;;;;;;2.40;1.70;;;;;;;18.51;53.25;101301.70;105431;1273;108309;-80
2023/06/12 06:58:34;;;;;;;5.40;1.80;;;;;;;18.61;52.04;101300.27;105321;1272;98318;-79
2023/06/12 07:01:20;;;;;;;5.50;1.80;;;;;;;18.72;51.37;101298.91;105472;1270;98000;-80
2023/06/12 07:04:07;;;;;;;7.60;2.60;;;;;;;18.86;50.55;101297.23;104853;1270;97988;-81
2023/06/12 07:06:53;;;;;;;5.50;1.70;;;;;;;18.97;49.97;101296.23;105476;1272;102664;-80
2023/06/12 07:09:40;;;;;;;4.70;2.10;;;;;;;19.08;48.97;101298.02;105488;1272;100352;-85
2023/06/12 07:12:27;;;;;;;8.20;1.80;;;;;;;19.18;47.86;101300.66;105472;1271;99030;-83
2023/06/12 07:15:13;;;;;;;8.20;2.00;;;;;;;19.28;46.69;101297.86;105421;1270;98237;-82
2023/06/12 07:18:00;;;;;;;7.80;2.20;;;;;;;19.38;46.43;101296.94;105562;1268;99317;-83
2023/06/12 07:20:46;;;;;;;6.70;2.10;;;;;;;19.49;46.14;101297.23;105636;1272;102625;-81
2023/06/12 07:23:31;;;;;;;8.30;2.40;;;;;;;19.59;45.20;101293.70;105496;1269;99745;-79
2023/06/12 07:26:17;;;;;;;4.10;1.30;;;;;;;19.67;43.84;101293.77;105582;1270;98477;-81
2023/06/12 07:29:03;;;;;;;3.90;1.60;;;;;;;19.71;42.16;101295.13;106237;1267;96237;-87
2023/06/12 07:31:52;;;;;;;4.20;1.30;;;;;;;19.75;41.52;101297.30;107262;1268;95457;-87
2023/06/12 07:34:38;;;;;;;3.80;1.50;;;;;;;19.82;41.46;101295.23;106217;1274;101432;-83
2023/06/12 07:37:24;;;;;;;3.30;1.80;;;;;;;19.92;41.26;101292.72;105181;1270;99932;-82
2023/06/12 07:40:11;;;;;;;3.70;1.50;;;;;;;19.98;40.95;101296.92;105401;1271;97927;-83
2023/06/12 07:42:57;;;;;;;6.30;2.20;;;;;;;20.02;40.67;101290.05;105297;1275;97985;-84
2023/06/12 07:45:45;;;;;;;4.70;1.60;;;;;;;20.11;41.46;101285.11;105080;1270;96414;-82
2023/06/12 07:48:31;;;;;;;4.40;1.60;;;;;;;20.24;41.08;101283.63;104991;1271;101353;-79
2023/06/12 07:51:17;;;;;;;5.60;1.70;;;;;;;20.35;40.65;101280.31;105164;1270;99864;-83
2023/06/12 07:54:03;;;;;;;6.70;1.70;;;;;;;20.44;40.15;101281.86;105178;1270;97941;-80
2023/06/12 07:56:53;;;;;;;2.80;1.20;;;;;;;20.46;38.94;101285.41;105154;1270;97880;-79
2023/06/12 07:59:39;;;;;;;2.10;1.60;;;;;;;20.43;38.55;101281.27;105288;1272;99730;-81
2023/06/12 08:02:31;;;;;;;2.30;1.00;;;;;;;20.41;38.74;101280.59;105306;1270;102163;-81
2023/06/12 08:05:18;;;;;;;3.00;1.40;;;;;;;20.43;37.60;101276.38;105432;1270;99215;-81
2023/06/12 08:08:10;;;;;;;1.70;1.40;;;;;;;20.49;38.22;101265.39;105455;1270;99011;-80
2023/06/12 08:10:56;;;;;;;1.80;1.20;;;;;;;20.58;38.37;101274.20;105435;1270;97900;-81
2023/06/12 08:13:42;;;;;;;2.10;1.50;;;;;;;20.64;37.93;101273.13;105356;1270;98586;-80
2023/06/12 08:16:31;;;;;;;3.70;1.50;;;;;;;20.68;37.55;101273.67;105315;1271;101376;-80
2023/06/12 08:19:17;;;;;;;4.20;1.40;;;;;;;20.69;37.44;101268.30;105246;1268;99400;-80
2023/06/12 08:22:07;;;;;;;3.10;1.50;;;;;;;20.72;37.32;101264.96;104743;1286;97993;-80
2023/06/12 08:24:54;;;;;;;;;;;;;;;20.68;36.69;101265.08;104795;1273;98010;-79
2023/06/12 08:27:40;;;;;;;6.40;1.60;;;;;;;20.61;36.18;101269.15;104775;1270;97905;-86
2023/06/12 08:30:27;;;;;;;3.80;1.70;;;;;;;20.58;36.32;101269.67;105386;1270;102732;-82
2023/06/12 08:33:16;;;;;;;4.30;1.50;;;;;;;20.56;36.05;101265.27;105464;1268;100606;-82
2023/06/12 08:36:02;;;;;;;7.50;1.90;;;;;;;20.59;36.41;101271.88;105390;1270;99609;-82
2023/06/12 08:38:47;;;;;;;6.00;1.60;;;;;;;20.63;35.45;101272.85;105274;1270;97962;-82
2023/06/12 08:41:40;;;;;;;2.70;1.50;;;;;;;20.63;35.17;101266.58;105377;1269;98070;-82
2023/06/12 08:44:27;;;;;;;;;;;;;;;20.63;36.00;101262.80;105235;1272;102624;-82
2023/06/12 08:47:16;;;;;;;3.90;1.50;;;;;;;20.71;36.33;101261.39;105353;1271;99120;-82
2023/06/12 08:50:02;;;;;;;4.70;1.50;;;;;;;20.79;36.30;101260.04;105422;1273;98699;-82
2023/06/12 08:52:50;;;;;;;2.80;1.30;;;;;;;20.84;36.03;101263.15;105249;1273;97873;-82
2023/06/12 08:55:39;;;;;;;5.90;1.40;;;;;;;20.88;35.86;101259.33;105366;1271;98032;-82
2023/06/12 08:58:25;;;;;;;4.70;1.60;;;;;;;20.91;35.50;101258.67;105394;1270;102625;-82
2023/06/12 09:01:12;;;;;;;4.70;1.60;;;;;;;20.91;35.46;101256.00;105454;1270;99750;-83
2023/06/12 09:04:00;;;;;;;1.80;1.30;;;;;;;20.93;35.43;101260.90;105451;1270;98040;-84
2023/06/12 09:06:46;;;;;;;4.20;1.60;;;;;;;20.92;35.06;101257.44;105338;1275;97895;-83
2023/06/12 09:09:40;;;;;;;3.10;1.70;;;;;;;20.89;35.00;101257.49;105578;1271;98454;-82
2023/06/12 09:12:29;;;;;;;2.20;1.40;;;;;;;20.92;35.14;101249.55;105314;1272;102613;-84
2023/06/12 09:15:16;;;;;;;3.10;1.60;;;;;;;20.97;34.75;101251.57;105432;1273;99000;-83
2023/06/12 09:18:02;;;;;;;2.20;1.40;;;;;;;20.98;34.58;101252.19;105351;1270;98563;-83
2023/06/12 09:20:49;;;;;;;4.10;1.30;;;;;;;21.03;34.20;101246.22;105563;1270;98105;-84
2023/06/12 09:23:36;;;;;;;4.80;1.80;;;;;;;21.08;33.71;101246.02;105362;1270;98458;-80
2023/06/12 09:26:22;;;;;;;2.50;1.40;;;;;;;21.10;33.73;101253.14;105465;1270;101335;-81
2023/06/12 09:29:07;;;;;;;3.40;1.40;;;;;;;21.08;33.41;101245.85;105537;1270;99145;-80
2023/06/12 09:31:53;;;;;;;5.70;1.30;;;;;;;21.09;33.86;101248.33;105403;1273;97898;-81
2023/06/12 09:34:45;;;;;;;3.60;1.30;;;;;;;21.15;33.95;101244.10;105427;1270;97967;-79
2023/06/12 09:37:31;;;;;;;3.40;1.30;;;;;;;21.21;33.98;101243.17;104967;1270;99380;-80
2023/06/12 09:40:17;;;;;;;4.50;1.50;;;;;;;21.21;32.87;101239.86;104824;1271;101928;-80
2023/06/12 09:43:04;;;;;;;6.50;1.30;;;;;;;21.21;33.28;101240.13;104723;1274;100896;-79
2023/06/12 09:45:49;;;;;;;6.40;1.40;;;;;;;21.22;32.99;101238.17;104690;1272;98499;-79
2023/06/12 09:48:39;;;;;;;5.20;1.40;;;;;;;21.27;33.16;101239.41;104521;1268;98775;-78
2023/06/12 09:51:26;;;;;;;2.70;2.10;;;;;;;21.29;33.17;101229.02;105329;1270;98516;-80
2023/06/12 09:54:15;;;;;;;2.40;1.50;;;;;;;21.31;32.93;101237.77;105327;1270;102580;-79
2023/06/12 09:57:04;;;;;;;4.20;1.40;;;;;;;21.29;32.30;101226.94;104797;1274;100021;-80
2023/06/12 09:59:56;;;;;;;5.40;1.70;;;;;;;21.30;32.43;101216.61;104794;1274;97958;-79
2023/06/12 10:02:56;;;;;;;3.00;1.40;;;;;;;21.41;32.90;101222.77;104629;1276;98135;-79
2023/06/12 10:05:48;;;;;;;5.90;1.70;;;;;;;21.46;32.69;101229.02;104892;1271;98742;-80
2023/06/12 10:08:34;;;;;;;6.70;1.40;;;;;;;21.46;32.60;101223.95;104806;1270;101424;-80
2023/06/12 10:11:21;;;;;;;2.80;1.50;;;;;;;21.47;32.08;101220.39;104828;1268;99520;-80
2023/06/12 10:14:06;;;;;;;3.30;1.20;;;;;;;21.53;32.64;101211.45;104956;1271;98993;-80
2023/06/12 10:16:57;;;;;;;2.20;1.20;;;;;;;21.67;33.09;101210.40;105394;1273;98106;-80
2023/06/12 10:19:47;;;;;;;3.20;1.40;;;;;;;21.83;32.53;101206.95;105241;1273;97976;-79
2023/06/12 10:22:32;;;;;;;4.10;1.40;;;;;;;21.87;31.68;101203.21;104807;1274;102627;-80
2023/06/12 10:25:19;;;;;;;3.70;1.50;;;;;;;21.79;31.19;101200.82;104885;1271;100407;-80
2023/06/12 10:28:06;;;;;;;4.80;1.20;;;;;;;21.74;31.31;101198.11;104935;1271;98996;-81
2023/06/12 10:31:23;;;;;;;4.90;1.60;;;;;;;21.81;31.38;101198.84;106548;1264;96271;-81
2023/06/12 10:34:12;;;;;;;1.80;1.10;;;;;;;21.87;30.47;101200.21;106645;1261;98380;-81
2023/06/12 10:36:57;;;;;;;5.70;1.70;;;;;;;21.84;30.83;101202.89;106769;1267;101409;-80
2023/06/12 10:39:46;;;;;;;1.40;1.30;;;;;;;21.88;30.26;101199.31;104900;1272;99121;-80
2023/06/12 10:42:54;;;;;;;3.00;1.50;;;;;;;21.89;29.91;101195.77;105024;1269;100219;-81
2023/06/12 10:45:57;;;;;;;4.40;1.30;;;;;;;21.94;30.44;101189.27;105493;1267;98451;-79
2023/06/12 10:48:46;;;;;;;3.00;1.20;;;;;;;22.01;30.78;101182.08;105332;1274;97966;-80
2023/06/12 10:51:33;;;;;;;3.60;1.50;;;;;;;22.04;30.30;101184.48;105395;1269;102842;-79
2023/06/12 10:54:25;;;;;;;4.40;1.70;;;;;;;22.02;30.32;101182.91;105406;1267;99102;-80
2023/06/12 10:57:12;;;;;;;4.20;1.30;;;;;;;21.98;30.09;101179.67;105408;1272;99094;-80
2023/06/12 11:00:00;;;;;;;5.50;1.40;;;;;;;21.93;29.81;101176.15;105207;1267;97913;-80
2023/06/12 11:03:02;;;;;;;1.50;1.20;;;;;;;21.94;30.24;101170.05;105304;1271;98272;-80
2023/06/12 11:06:08;;;;;;;4.80;1.10;;;;;;;22.01;29.61;101167.56;105428;1271;102640;-81
2023/06/12 11:09:07;;;;;;;4.60;1.40;;;;;;;21.99;29.08;101168.56;105878;1273;100160;-80
2023/06/12 11:12:03;;;;;;;3.50;1.30;;;;;;;22.01;29.53;101162.31;105175;1276;99248;-79
2023/06/12 11:14:52;;;;;;;1.60;1.20;;;;;;;22.03;29.42;101161.55;105124;1270;97907;-81
2023/06/12 11:17:42;;;;;;;4.80;1.50;;;;;;;22.06;29.17;101162.07;105308;1268;97981;-80
2023/06/12 11:20:28;;;;;;;3.90;1.30;;;;;;;22.06;28.36;101150.52;105401;1271;101378;-82
2023/06/12 11:23:15;;;;;;;3.00;1.20;;;;;;;22.11;28.54;101145.98;105492;1269;99192;-80
2023/06/12 11:26:01;;;;;;;6.20;2.40;;;;;;;22.11;28.19;101149.89;105426;1271;98656;-80
2023/06/12 11:28:46;;;;;;;6.30;1.50;;;;;;;22.14;29.50;101148.13;105577;1271;97970;-79
2023/06/12 11:31:32;;;;;;;1.70;1.40;;;;;;;22.26;29.84;101154.91;105345;1269;97980;-82
2023/06/12 11:34:17;;;;;;;3.00;1.60;;;;;;;22.30;29.31;101147.43;105588;1271;103167;-82
2023/06/12 11:37:17;;;;;;;4.00;1.50;;;;;;;22.29;28.48;101140.21;105621;1271;99132;-81
2023/06/12 11:40:11;;;;;;;2.00;1.50;;;;;;;22.31;28.99;101138.40;105292;1274;98445;-82
2023/06/12 11:42:57;;;;;;;3.10;1.60;;;;;;;22.29;28.48;101130.29;105482;1268;98009;-81
2023/06/12 11:45:43;;;;;;;4.30;1.50;;;;;;;22.23;28.96;101120.98;105461;1267;97942;-81
2023/06/12 11:48:34;;;;;;;8.60;1.70;;;;;;;22.29;29.06;101124.88;105484;1267;102131;-80
2023/06/12 11:51:22;;;;;;;4.00;1.60;;;;;;;22.39;29.65;101123.12;105431;1275;99096;-81
2023/06/12 11:54:09;;;;;;;2.50;1.80;;;;;;;22.53;30.11;101120.20;105363;1272;97979;-79
2023/06/12 11:56:54;;;;;;;2.50;1.60;;;;;;;22.60;30.34;101119.77;105613;1269;97888;-79
2023/06/12 11:59:39;;;;;;;3.70;1.80;;;;;;;22.65;29.68;101118.80;105403;1272;99599;-80
2023/06/12 12:02:33;;;;;;;6.50;2.00;;;;;;;22.64;29.38;101118.23;104885;1268;101512;-80
2023/06/12 12:05:24;;;;;;;3.90;1.90;;;;;;;22.65;29.49;101112.02;105096;1273;99838;-82
2023/06/12 12:08:10;;;;;;;3.90;1.80;;;;;;;22.69;29.32;101111.05;105482;1271;98998;-80
2023/06/12 12:10:57;;;;;;;3.60;1.80;;;;;;;22.75;29.49;101111.45;105359;1271;97977;-81
2023/06/12 12:13:49;;;;;;;2.70;2.00;;;;;;;22.81;29.66;101108.02;105374;1271;98693;-81
2023/06/12 12:16:38;;;;;;;2.70;2.00;;;;;;;22.92;30.27;101109.47;104959;1271;101946;-79
2023/06/12 12:19:29;;;;;;;7.20;2.40;;;;;;;23.02;30.19;101110.23;105532;1273;99121;-80
2023/06/12 12:22:19;;;;;;;8.30;2.00;;;;;;;23.06;30.07;101112.30;105439;1273;99030;-80
2023/06/12 12:25:06;;;;;;;5.00;1.80;;;;;;;23.12;30.55;101106.41;105488;1271;98956;-78
2023/06/12 12:27:53;;;;;;;3.30;1.90;;;;;;;23.22;30.57;101096.73;104638;1273;98494;-80
2023/06/12 12:30:39;;;;;;;5.10;2.00;;;;;;;23.36;30.54;101088.38;104976;1271;102411;-79
2023/06/12 12:33:24;;;;;;;3.30;2.30;;;;;;;23.51;30.98;101083.88;105424;1271;100896;-81
2023/06/12 12:36:10;;;;;;;3.60;2.10;;;;;;;23.59;30.70;101092.91;105385;1273;98253;-81
2023/06/12 12:38:55;;;;;;;4.80;1.70;;;;;;;23.69;30.71;101091.68;105281;1273;98057;-81
2023/06/12 12:41:40;;;;;;;6.00;1.70;;;;;;;23.78;30.73;101090.66;105341;1272;99405;-80
2023/06/12 12:44:26;;;;;;;6.80;2.10;;;;;;;23.83;29.99;101090.54;105523;1271;101472;-81
2023/06/12 12:47:11;;;;;;;5.50;1.60;;;;;;;23.88;30.02;101082.98;105466;1271;99139;-81
2023/06/12 12:49:57;;;;;;;1.80;1.50;;;;;;;23.86;29.77;101080.44;105400;1267;98022;-80